Time;durP1;ratioP1;P1;durP2;ratioP2;P2;SDS_P1;SDS_P2;PMS_P1;PMS_P2;Temp;Humidity;BMP_temperature;BMP_pressure;BME280_temperature;BME280_humidity;BME280_pressure;Samples;Min_cycle;Max_cycle;Signal;HPM_P1;HPM_P2
2023/07/17 00:00:11;;;;;;;6.53;5.93;;;24.40;81.50;;;;;;4993893;28;20478;-76
2023/07/17 00:02:38;;;;;;;6.73;5.87;;;24.30;81.60;;;;;;4995785;28;20553;-80
2023/07/17 00:05:06;;;;;;;6.27;5.67;;;24.30;81.90;;;;;;4994514;28;20568;-74
2023/07/17 00:07:33;;;;;;;5.10;4.70;;;24.40;82.30;;;;;;4995241;28;20466;-74
2023/07/17 00:10:00;;;;;;;6.23;5.63;;;24.40;82.40;;;;;;4994554;28;20960;-75
2023/07/17 00:12:29;;;;;;;5.43;4.83;;;24.30;82.40;;;;;;4995004;28;20525;-74
2023/07/17 00:14:56;;;;;;;8.63;6.53;;;24.30;82.70;;;;;;4994536;28;20815;-75
2023/07/17 00:17:23;;;;;;;7.67;6.87;;;24.30;82.90;;;;;;4995282;28;20496;-79
2023/07/17 00:19:55;;;;;;;7.07;6.37;;;24.30;83.10;;;;;;4994937;28;20569;-78
2023/07/17 00:22:22;;;;;;;7.03;5.60;;;24.30;83.10;;;;;;4994639;28;20464;-75
2023/07/17 00:24:50;;;;;;;6.03;5.30;;;24.30;83.10;;;;;;4994104;28;20568;-79
2023/07/17 00:27:17;;;;;;;6.60;6.00;;;24.30;83.30;;;;;;4994273;28;20538;-79
2023/07/17 00:29:46;;;;;;;5.63;5.13;;;24.30;83.60;;;;;;4984349;28;20569;-75
2023/07/17 00:32:15;;;;;;;6.00;5.40;;;24.30;83.80;;;;;;4994102;28;20561;-75
2023/07/17 00:34:42;;;;;;;5.83;5.33;;;24.30;83.50;;;;;;4994788;28;20528;-79
2023/07/17 00:37:10;;;;;;;6.47;5.93;;;24.30;83.60;;;;;;4993998;28;20964;-75
2023/07/17 00:39:37;;;;;;;6.70;6.10;;;24.30;83.60;;;;;;4994882;28;20485;-79
2023/07/17 00:42:04;;;;;;;6.90;6.30;;;24.30;83.90;;;;;;4992657;28;20549;-78
2023/07/17 00:44:32;;;;;;;6.47;5.90;;;24.30;83.80;;;;;;4984750;28;20979;-78
2023/07/17 00:47:00;;;;;;;6.80;6.20;;;24.30;84.10;;;;;;4993832;28;20557;-75
2023/07/17 00:49:29;;;;;;;6.07;5.47;;;24.30;84.30;;;;;;4992486;28;20458;-75
2023/07/17 00:51:58;;;;;;;7.50;6.70;;;24.30;84.60;;;;;;4994556;28;21037;-75
2023/07/17 00:54:26;;;;;;;6.57;5.97;;;24.30;84.70;;;;;;4993500;28;20482;-76
2023/07/17 00:56:54;;;;;;;7.13;6.43;;;24.20;84.60;;;;;;4975360;28;20849;-75
2023/07/17 00:59:22;;;;;;;6.83;5.50;;;24.20;84.50;;;;;;4978003;28;20501;-79
2023/07/17 01:01:49;;;;;;;6.67;5.90;;;24.20;84.30;;;;;;4994440;28;20545;-76
2023/07/17 01:04:18;;;;;;;4.93;4.43;;;24.20;84.20;;;;;;4993432;28;20544;-78
2023/07/17 01:06:44;;;;;;;4.97;4.47;;;24.20;83.90;;;;;;4994284;28;20490;-79
2023/07/17 01:09:12;;;;;;;4.43;4.03;;;24.20;83.70;;;;;;4993450;28;20500;-79
2023/07/17 01:11:40;;;;;;;5.60;5.10;;;24.20;83.70;;;;;;4993677;28;20485;-76
2023/07/17 01:14:06;;;;;;;8.10;4.70;;;24.20;83.90;;;;;;4993798;28;20497;-79
2023/07/17 01:16:33;;;;;;;4.53;4.13;;;24.20;84.10;;;;;;4993555;28;20496;-75
2023/07/17 01:19:00;;;;;;;5.50;5.00;;;24.20;84.20;;;;;;4994295;28;20474;-79
2023/07/17 01:21:32;;;;;;;5.10;4.70;;;24.20;84.40;;;;;;4993544;28;20553;-76
2023/07/17 01:24:00;;;;;;;6.73;4.80;;;24.20;84.60;;;;;;4994270;28;20474;-76
2023/07/17 01:26:27;;;;;;;4.80;4.40;;;24.20;84.60;;;;;;4993833;28;20520;-75
2023/07/17 01:28:57;;;;;;;6.10;5.50;;;24.20;84.50;;;;;;4994319;28;21041;-76
2023/07/17 01:31:25;;;;;;;5.10;4.63;;;24.10;84.30;;;;;;4993546;28;20497;-79
2023/07/17 01:33:52;;;;;;;5.60;5.20;;;24.20;84.00;;;;;;4993196;28;20482;-76
2023/07/17 01:36:19;;;;;;;5.33;4.53;;;24.20;83.80;;;;;;4986823;28;20469;-75
2023/07/17 01:38:47;;;;;;;4.73;4.33;;;24.20;83.70;;;;;;4975392;28;20467;-75
2023/07/17 01:41:15;;;;;;;5.30;4.77;;;24.20;83.60;;;;;;4974455;28;20475;-77
2023/07/17 01:43:42;;;;;;;3.43;3.13;;;24.10;83.60;;;;;;4979232;28;20469;-80
2023/07/17 01:46:09;;;;;;;5.20;4.30;;;24.10;83.60;;;;;;4993810;28;20524;-80
2023/07/17 01:48:36;;;;;;;4.63;4.23;;;24.10;83.50;;;;;;4993387;28;20458;-78
2023/07/17 01:51:04;;;;;;;4.60;4.30;;;24.10;83.70;;;;;;4994244;28;20477;-75
2023/07/17 01:53:31;;;;;;;6.47;4.63;;;24.10;83.60;;;;;;4976342;28;20491;-76
2023/07/17 01:56:00;;;;;;;5.17;4.77;;;24.00;83.50;;;;;;4977719;28;20490;-76
2023/07/17 01:58:28;;;;;;;4.43;4.03;;;24.00;83.40;;;;;;4977669;28;20816;-76
2023/07/17 02:00:55;;;;;;;5.00;4.50;;;24.00;83.50;;;;;;4978217;28;21429;-80
2023/07/17 02:03:23;;;;;;;5.20;4.70;;;24.00;83.50;;;;;;4978147;28;20478;-77
2023/07/17 02:05:51;;;;;;;5.50;4.30;;;24.00;83.90;;;;;;4977973;28;20838;-76
2023/07/17 02:08:18;;;;;;;4.60;4.20;;;24.00;83.90;;;;;;4977326;28;20562;-79
2023/07/17 02:10:49;;;;;;;4.67;4.27;;;24.00;84.10;;;;;;4994898;28;20465;-76
2023/07/17 02:13:16;;;;;;;5.57;4.80;;;24.00;84.20;;;;;;4997562;28;20469;-80
2023/07/17 02:15:48;;;;;;;4.10;3.70;;;24.00;84.10;;;;;;4997023;28;20478;-80
2023/07/17 02:18:15;;;;;;;3.90;3.53;;;24.00;83.80;;;;;;4997319;28;20469;-81
2023/07/17 02:20:42;;;;;;;4.57;3.80;;;23.90;83.70;;;;;;4996804;28;20489;-80
2023/07/17 02:23:10;;;;;;;4.80;4.40;;;23.90;83.90;;;;;;4996785;28;20486;-79
2023/07/17 02:25:37;;;;;;;4.60;4.20;;;23.80;84.30;;;;;;4996283;28;20983;-81
2023/07/17 02:28:05;;;;;;;5.60;5.00;;;23.80;84.50;;;;;;4997213;28;21026;-81
2023/07/17 02:30:35;;;;;;;5.37;4.23;;;23.80;84.70;;;;;;4985301;28;20470;-77
2023/07/17 02:33:03;;;;;;;5.30;4.00;;;23.80;84.80;;;;;;4996905;28;20529;-77
2023/07/17 02:35:30;;;;;;;4.20;3.80;;;23.70;84.90;;;;;;4996363;28;20480;-80
2023/07/17 02:37:59;;;;;;;4.13;3.73;;;23.70;85.30;;;;;;4997063;28;21018;-80
2023/07/17 02:40:26;;;;;;;4.13;3.63;;;23.60;85.30;;;;;;4988301;28;20561;-79
2023/07/17 02:42:53;;;;;;;3.90;3.70;;;23.60;85.40;;;;;;4997208;28;20541;-80
2023/07/17 02:45:21;;;;;;;4.73;4.00;;;23.70;85.80;;;;;;4997097;28;21003;-80
2023/07/17 02:47:48;;;;;;;4.13;3.80;;;23.60;85.80;;;;;;4996500;28;20783;-80
2023/07/17 02:50:17;;;;;;;4.13;3.77;;;23.60;86.00;;;;;;4996857;28;21158;-80
2023/07/17 02:52:44;;;;;;;4.03;3.73;;;23.60;85.80;;;;;;4996401;28;20541;-81
2023/07/17 02:55:11;;;;;;;4.13;3.37;;;23.50;86.10;;;;;;4997022;28;20553;-80
2023/07/17 02:57:44;;;;;;;3.50;3.20;;;23.50;86.10;;;;;;4996665;28;20528;-80
2023/07/17 03:00:14;;;;;;;4.07;3.67;;;23.50;86.40;;;;;;4996546;28;20872;-81
2023/07/17 03:02:43;;;;;;;4.77;4.33;;;23.50;86.50;;;;;;4996218;28;20470;-77
2023/07/17 03:05:11;;;;;;;5.17;3.53;;;23.50;86.20;;;;;;4996609;28;20474;-79
2023/07/17 03:07:41;;;;;;;4.10;3.77;;;23.50;87.10;;;;;;4995760;28;20482;-80
2023/07/17 03:10:09;;;;;;;4.67;4.27;;;23.40;86.40;;;;;;4996419;28;20469;-77
2023/07/17 03:12:37;;;;;;;5.00;4.10;;;23.40;86.60;;;;;;4995874;28;20465;-80
2023/07/17 03:15:05;;;;;;;4.30;4.00;;;23.30;86.80;;;;;;4996318;28;20478;-76
2023/07/17 03:17:32;;;;;;;6.27;4.77;;;23.30;86.80;;;;;;4996181;28;20538;-77
2023/07/17 03:19:59;;;;;;;4.10;3.67;;;23.30;87.10;;;;;;4996949;28;20792;-76
2023/07/17 03:22:27;;;;;;;4.73;4.23;;;23.20;87.30;;;;;;4996414;28;20470;-77
2023/07/17 03:24:55;;;;;;;5.27;4.03;;;23.20;87.60;;;;;;4995345;28;20465;-76
2023/07/17 03:27:23;;;;;;;4.93;4.20;;;23.20;87.90;;;;;;4996350;28;20509;-77
2023/07/17 03:29:49;;;;;;;4.50;4.10;;;23.10;87.90;;;;;;4995514;28;20938;-76
2023/07/17 03:32:16;;;;;;;5.17;4.67;;;23.10;88.00;;;;;;4996369;28;20466;-81
2023/07/17 03:34:43;;;;;;;4.53;4.10;;;23.10;87.80;;;;;;4995597;28;20562;-80
2023/07/17 03:37:10;;;;;;;4.70;4.30;;;23.10;88.00;;;;;;4995857;28;20536;-80
2023/07/17 03:39:37;;;;;;;4.97;4.60;;;23.10;88.20;;;;;;4994813;28;21022;-77
2023/07/17 03:42:10;;;;;;;4.77;4.37;;;23.10;88.30;;;;;;4996039;28;20532;-77
2023/07/17 03:44:37;;;;;;;4.33;3.93;;;23.00;88.40;;;;;;4996235;28;20991;-77
2023/07/17 03:47:05;;;;;;;5.33;4.53;;;23.00;88.60;;;;;;4999192;28;20848;-80
2023/07/17 03:49:34;;;;;;;4.50;4.10;;;23.00;88.50;;;;;;5001111;28;20477;-81
2023/07/17 03:52:01;;;;;;;5.37;4.87;;;23.00;88.60;;;;;;4997201;28;20485;-77
2023/07/17 03:54:28;;;;;;;5.43;4.93;;;23.00;88.80;;;;;;4997570;28;20513;-77
2023/07/17 03:56:55;;;;;;;5.97;4.77;;;22.90;88.70;;;;;;4996127;28;20538;-80
2023/07/17 03:59:26;;;;;;;5.43;4.67;;;23.00;89.00;;;;;;4998204;28;20466;-81
2023/07/17 04:01:53;;;;;;;5.23;4.30;;;23.00;89.10;;;;;;4998273;28;20494;-77
2023/07/17 04:04:20;;;;;;;6.20;5.10;;;23.00;89.20;;;;;;5004893;28;20477;-80
2023/07/17 04:06:48;;;;;;;6.93;5.43;;;23.00;89.20;;;;;;5001291;28;20469;-80
2023/07/17 04:09:16;;;;;;;5.50;4.77;;;23.00;89.10;;;;;;4995614;28;20477;-80
2023/07/17 04:11:45;;;;;;;5.40;4.90;;;23.00;89.20;;;;;;4997821;28;20811;-80
2023/07/17 04:14:12;;;;;;;5.47;4.87;;;22.90;88.90;;;;;;4996685;28;20545;-81
2023/07/17 04:16:41;;;;;;;5.73;4.53;;;22.90;88.70;;;;;;4997422;28;20506;-79
2023/07/17 04:19:08;;;;;;;4.70;4.30;;;22.90;88.80;;;;;;5002084;28;20463;-76
2023/07/17 04:21:35;;;;;;;4.87;4.40;;;22.90;88.90;;;;;;5003235;28;20529;-77
2023/07/17 04:24:02;;;;;;;4.70;4.33;;;22.90;89.00;;;;;;5005144;28;20466;-76
2023/07/17 04:26:29;;;;;;;6.17;5.13;;;22.90;89.00;;;;;;5005272;28;20548;-80
2023/07/17 04:28:56;;;;;;;4.87;4.47;;;22.90;89.10;;;;;;5006098;28;20505;-80
2023/07/17 04:31:23;;;;;;;6.90;4.77;;;22.90;88.90;;;;;;5005074;28;20497;-76
2023/07/17 04:33:51;;;;;;;5.57;4.97;;;22.90;89.10;;;;;;5001940;28;20502;-76
2023/07/17 04:36:18;;;;;;;5.23;4.63;;;22.90;89.10;;;;;;5003507;28;20497;-80
2023/07/17 04:38:45;;;;;;;6.03;4.83;;;22.90;88.90;;;;;;5001460;28;20477;-77
2023/07/17 04:41:12;;;;;;;4.50;4.10;;;22.90;88.90;;;;;;5005768;28;20462;-81
2023/07/17 04:43:39;;;;;;;4.30;3.90;;;22.90;88.90;;;;;;5004606;28;20968;-81
2023/07/17 04:46:06;;;;;;;6.03;4.90;;;22.90;88.60;;;;;;5001419;28;20488;-80
2023/07/17 04:48:32;;;;;;;4.50;4.10;;;23.00;88.60;;;;;;5007198;28;20478;-81
2023/07/17 04:51:01;;;;;;;5.90;4.20;;;23.00;88.60;;;;;;4999705;28;20490;-76
2023/07/17 04:53:28;;;;;;;5.37;4.87;;;23.00;88.70;;;;;;4998207;28;20489;-81
2023/07/17 04:55:55;;;;;;;6.83;6.13;;;23.10;88.70;;;;;;4999384;28;20478;-80
2023/07/17 04:58:22;;;;;;;5.20;4.80;;;23.10;88.60;;;;;;4995809;28;20501;-81
2023/07/17 05:00:50;;;;;;;6.00;5.40;;;23.20;88.60;;;;;;4995116;28;20470;-77
2023/07/17 05:03:18;;;;;;;7.33;5.80;;;23.20;88.30;;;;;;4994751;28;20471;-77
2023/07/17 05:05:49;;;;;;;5.20;4.63;;;23.30;88.40;;;;;;4995119;28;20547;-77
2023/07/17 05:08:18;;;;;;;9.70;6.07;;;23.30;88.30;;;;;;4996607;28;20470;-80
2023/07/17 05:10:52;;;;;;;5.33;4.83;;;23.30;87.60;;;;;;4995745;28;20474;-77
2023/07/17 05:13:20;;;;;;;5.27;4.60;;;23.40;87.80;;;;;;5003642;28;20461;-80
2023/07/17 05:15:47;;;;;;;4.57;4.13;;;23.40;87.70;;;;;;4997590;28;20486;-80
2023/07/17 05:18:14;;;;;;;7.60;5.70;;;23.40;87.70;;;;;;4995380;28;20532;-80
2023/07/17 05:20:44;;;;;;;5.60;4.13;;;23.40;87.90;;;;;;4997234;28;20481;-76
2023/07/17 05:23:11;;;;;;;5.57;4.17;;;23.40;87.90;;;;;;5001127;28;20551;-79
2023/07/17 05:25:40;;;;;;;4.60;4.17;;;23.40;88.00;;;;;;4997583;28;20478;-76
2023/07/17 05:28:07;;;;;;;9.50;4.83;;;23.40;87.90;;;;;;4998608;28;20536;-78
2023/07/17 05:30:35;;;;;;;5.43;4.93;;;23.40;87.60;;;;;;4995737;28;20512;-76
2023/07/17 05:33:02;;;;;;;5.70;4.83;;;23.40;87.60;;;;;;4995840;28;20493;-80
2023/07/17 05:35:30;;;;;;;5.43;4.93;;;23.40;87.50;;;;;;4996568;28;20478;-77
2023/07/17 05:38:00;;;;;;;12.70;5.67;;;23.40;87.60;;;;;;4994367;28;20493;-77
2023/07/17 05:40:28;;;;;;;5.03;4.57;;;23.40;87.40;;;;;;4985478;28;20479;-80
2023/07/17 05:42:56;;;;;;;5.00;4.60;;;23.40;87.50;;;;;;4994667;28;20563;-81
2023/07/17 05:45:23;;;;;;;9.43;5.67;;;23.40;87.30;;;;;;4996056;28;20553;-76
2023/07/17 05:47:50;;;;;;;5.20;4.70;;;23.40;87.20;;;;;;5000920;28;20477;-81
2023/07/17 05:50:19;;;;;;;5.57;5.03;;;23.50;87.30;;;;;;5001229;28;20475;-76
2023/07/17 05:52:45;;;;;;;6.53;5.37;;;23.50;87.20;;;;;;4994494;28;20473;-77
2023/07/17 05:55:12;;;;;;;5.40;4.90;;;23.50;86.90;;;;;;4993374;28;20560;-77
2023/07/17 05:57:42;;;;;;;8.10;5.03;;;23.60;86.70;;;;;;4994138;28;21010;-77
2023/07/17 06:00:12;;;;;;;8.23;5.57;;;23.60;86.60;;;;;;4992902;28;20462;-77
2023/07/17 06:02:40;;;;;;;5.67;5.17;;;23.70;86.30;;;;;;4993466;28;20466;-77
2023/07/17 06:05:11;;;;;;;6.43;5.53;;;23.70;85.70;;;;;;4992939;28;20481;-77
2023/07/17 06:07:39;;;;;;;9.23;4.80;;;23.80;85.60;;;;;;4993845;28;20803;-77
2023/07/17 06:10:07;;;;;;;5.20;4.80;;;23.80;85.50;;;;;;4993145;28;21055;-76
2023/07/17 06:12:34;;;;;;;7.47;4.80;;;23.90;85.60;;;;;;4993876;28;20469;-76
2023/07/17 06:15:01;;;;;;;5.60;4.73;;;23.90;84.80;;;;;;4993739;28;20516;-75
2023/07/17 06:17:29;;;;;;;6.63;5.47;;;24.00;84.40;;;;;;4992675;28;20859;-75
2023/07/17 06:19:56;;;;;;;6.53;5.47;;;24.00;84.30;;;;;;4993515;28;20500;-75
2023/07/17 06:22:23;;;;;;;5.30;4.80;;;24.20;84.20;;;;;;4993240;28;20958;-75
2023/07/17 06:24:50;;;;;;;5.50;4.47;;;24.20;83.70;;;;;;4993534;28;20476;-75
2023/07/17 06:27:17;;;;;;;5.53;5.03;;;24.30;82.80;;;;;;4993106;28;20480;-79
2023/07/17 06:29:44;;;;;;;6.57;5.27;;;24.50;82.60;;;;;;4993944;28;20480;-76
2023/07/17 06:32:11;;;;;;;5.60;4.33;;;24.60;82.10;;;;;;4984440;28;21000;-76
2023/07/17 06:34:41;;;;;;;4.37;3.93;;;24.70;82.00;;;;;;4994014;28;20465;-79
2023/07/17 06:37:09;;;;;;;4.90;4.47;;;24.80;81.70;;;;;;4993334;28;20820;-78
2023/07/17 06:39:36;;;;;;;5.40;4.40;;;24.90;81.30;;;;;;4993222;28;20575;-76
2023/07/17 06:42:03;;;;;;;5.63;4.33;;;25.00;81.60;;;;;;4996447;28;20489;-80
2023/07/17 06:44:31;;;;;;;5.20;4.77;;;25.10;80.30;;;;;;4996880;28;20471;-79
2023/07/17 06:46:58;;;;;;;4.90;4.50;;;25.10;80.40;;;;;;4997082;28;20485;-75
2023/07/17 06:49:25;;;;;;;6.63;5.00;;;25.20;80.50;;;;;;4996397;28;20473;-79
2023/07/17 06:51:56;;;;;;;8.93;5.10;;;25.10;79.50;;;;;;4997066;28;20494;-75
2023/07/17 06:54:23;;;;;;;4.30;3.90;;;25.10;79.50;;;;;;4995250;28;20485;-75
2023/07/17 06:56:51;;;;;;;4.67;4.30;;;25.20;79.70;;;;;;4996651;28;20473;-75
2023/07/17 06:59:18;;;;;;;6.67;4.60;;;25.30;79.70;;;;;;4996294;28;20532;-79
2023/07/17 07:01:45;;;;;;;5.33;4.63;;;25.40;79.30;;;;;;4996880;28;20476;-79
2023/07/17 07:04:12;;;;;;;5.70;5.17;;;25.50;78.60;;;;;;4996073;28;20474;-79
2023/07/17 07:06:39;;;;;;;5.20;4.60;;;25.70;78.60;;;;;;4996544;28;20470;-79
2023/07/17 07:09:11;;;;;;;6.43;5.17;;;25.80;78.30;;;;;;4996001;28;21041;-76
2023/07/17 07:11:38;;;;;;;5.03;4.63;;;26.00;77.80;;;;;;4996176;28;20473;-76
2023/07/17 07:14:05;;;;;;;4.80;4.27;;;26.00;77.50;;;;;;4996664;28;21026;-80
2023/07/17 07:16:32;;;;;;;10.30;5.67;;;26.20;77.50;;;;;;4995543;28;20490;-76
2023/07/17 07:19:00;;;;;;;6.30;5.70;;;26.10;76.10;;;;;;4996257;28;20524;-79
2023/07/17 07:21:27;;;;;;;7.03;5.10;;;26.20;75.80;;;;;;4994116;28;20466;-76
2023/07/17 07:23:54;;;;;;;6.30;4.83;;;26.20;74.70;;;;;;4996165;28;20478;-80
2023/07/17 07:26:23;;;;;;;7.97;4.87;;;26.30;74.50;;;;;;4995766;28;20991;-76
2023/07/17 07:28:50;;;;;;;5.97;5.37;;;26.40;74.00;;;;;;4996196;28;20462;-76
2023/07/17 07:31:16;;;;;;;6.07;5.40;;;26.40;74.00;;;;;;4995371;28;20481;-79
2023/07/17 07:33:43;;;;;;;9.97;5.73;;;26.60;73.90;;;;;;4996101;28;20463;-80
2023/07/17 07:36:10;;;;;;;5.70;5.10;;;26.60;73.60;;;;;;4996360;28;20563;-80
2023/07/17 07:38:37;;;;;;;8.83;5.30;;;26.70;73.40;;;;;;4995307;28;20468;-80
2023/07/17 07:41:04;;;;;;;5.20;4.70;;;26.90;72.80;;;;;;4996147;28;20554;-80
2023/07/17 07:43:32;;;;;;;6.03;5.43;;;26.90;72.40;;;;;;4994999;28;20554;-79
2023/07/17 07:45:59;;;;;;;5.60;5.17;;;27.00;72.70;;;;;;4995839;28;20472;-76
2023/07/17 07:48:26;;;;;;;5.60;5.10;;;27.10;72.20;;;;;;4995371;28;20479;-79
2023/07/17 07:50:54;;;;;;;5.63;5.13;;;27.30;71.50;;;;;;4995900;28;20475;-75
2023/07/17 07:53:21;;;;;;;6.80;6.03;;;27.40;71.50;;;;;;4993364;28;20473;-75
2023/07/17 07:55:48;;;;;;;5.93;5.43;;;27.60;71.10;;;;;;4995852;28;20871;-79
2023/07/17 07:58:15;;;;;;;7.20;5.80;;;27.70;69.80;;;;;;4995484;28;20508;-79
2023/07/17 08:00:46;;;;;;;7.60;5.40;;;27.90;69.30;;;;;;4994786;28;20564;-79
2023/07/17 08:03:13;;;;;;;7.10;6.07;;;27.90;68.70;;;;;;4996028;28;20528;-79
2023/07/17 08:05:40;;;;;;;6.60;5.03;;;28.00;68.20;;;;;;4994995;28;20549;-76
2023/07/17 08:08:07;;;;;;;7.57;5.77;;;28.00;67.80;;;;;;4995594;28;20904;-80
2023/07/17 08:10:37;;;;;;;6.43;5.87;;;28.20;67.20;;;;;;4995087;28;20506;-76
2023/07/17 08:13:04;;;;;;;6.80;5.80;;;28.40;66.80;;;;;;4986547;28;20477;-81
2023/07/17 08:15:31;;;;;;;7.30;5.33;;;28.40;66.20;;;;;;4994969;28;20557;-79
2023/07/17 08:18:00;;;;;;;6.67;5.60;;;28.50;66.00;;;;;;4995022;28;20538;-76
2023/07/17 08:20:27;;;;;;;8.63;5.10;;;28.60;66.10;;;;;;4994765;28;20477;-76
2023/07/17 08:22:57;;;;;;;7.60;4.83;;;28.70;66.00;;;;;;4995157;28;20470;-81
2023/07/17 08:25:24;;;;;;;5.37;4.87;;;28.80;64.90;;;;;;4994542;28;20500;-81
2023/07/17 08:27:51;;;;;;;6.20;5.07;;;28.90;64.20;;;;;;4995159;28;20545;-82
2023/07/17 08:30:18;;;;;;;5.00;4.60;;;29.00;64.00;;;;;;4984579;28;20597;-77
2023/07/17 08:32:47;;;;;;;6.00;4.20;;;29.10;63.10;;;;;;4993748;28;20521;-77
2023/07/17 08:35:15;;;;;;;5.20;4.10;;;29.20;62.10;;;;;;4994435;28;20477;-76
2023/07/17 08:37:42;;;;;;;4.30;3.90;;;29.30;61.30;;;;;;4994640;28;20847;-81
2023/07/17 08:40:11;;;;;;;5.80;4.60;;;29.20;61.10;;;;;;4995078;28;20853;-77
2023/07/17 08:42:44;;;;;;;6.27;5.17;;;29.30;61.40;;;;;;4994422;28;20565;-76
2023/07/17 08:45:12;;;;;;;6.40;4.83;;;29.30;61.90;;;;;;4994659;28;20488;-77
2023/07/17 08:47:40;;;;;;;7.67;4.90;;;29.30;61.90;;;;;;4994782;28;20500;-82
2023/07/17 08:50:08;;;;;;;5.03;4.30;;;29.40;61.80;;;;;;4994470;28;20501;-81
2023/07/17 08:52:38;;;;;;;4.77;4.33;;;29.40;61.80;;;;;;4994273;28;20565;-77
2023/07/17 08:55:06;;;;;;;6.37;5.33;;;29.40;61.20;;;;;;4994305;28;20476;-75
2023/07/17 08:57:35;;;;;;;10.57;4.43;;;29.40;60.60;;;;;;4993695;28;20489;-76
2023/07/17 09:00:04;;;;;;;4.77;4.27;;;29.30;60.00;;;;;;4994725;28;20620;-79
2023/07/17 09:02:31;;;;;;;4.23;3.83;;;29.30;60.10;;;;;;4994502;28;20470;-79
2023/07/17 09:04:58;;;;;;;5.37;3.70;;;29.20;60.20;;;;;;4994188;28;20470;-80
2023/07/17 09:07:25;;;;;;;6.20;4.00;;;29.10;60.00;;;;;;4994816;28;20545;-80
2023/07/17 09:10:19;;;;;;;6.53;4.10;;;29.20;59.70;;;;;;4994091;28;20502;-80
2023/07/17 09:12:51;;;;;;;9.77;4.50;;;29.20;59.90;;;;;;4994328;28;20805;-80
2023/07/17 09:15:19;;;;;;;3.83;3.53;;;29.20;59.60;;;;;;4993380;28;20477;-80
2023/07/17 09:17:46;;;;;;;5.83;4.63;;;29.20;59.70;;;;;;4993487;28;20505;-80
2023/07/17 09:20:16;;;;;;;6.80;3.60;;;29.10;59.90;;;;;;4993400;28;20959;-81
2023/07/17 09:22:43;;;;;;;4.20;3.63;;;29.10;60.10;;;;;;4994033;28;20654;-80
2023/07/17 09:25:11;;;;;;;5.10;4.37;;;29.00;60.20;;;;;;4994624;28;20871;-81
2023/07/17 09:27:47;;;;;;;4.47;3.93;;;29.00;59.80;;;;;;4994448;28;20468;-80
2023/07/17 09:30:16;;;;;;;5.23;3.93;;;29.00;59.80;;;;;;4994442;28;20480;-76
2023/07/17 09:32:43;;;;;;;4.93;4.23;;;29.00;60.30;;;;;;4994493;28;20480;-76
2023/07/17 09:35:12;;;;;;;5.40;4.80;;;29.00;59.90;;;;;;4994455;28;20955;-76
2023/07/17 09:37:43;;;;;;;7.50;4.20;;;29.00;59.90;;;;;;4993965;28;20497;-76
2023/07/17 09:40:11;;;;;;;5.63;4.73;;;29.00;60.10;;;;;;4994255;28;20505;-76
2023/07/17 09:42:40;;;;;;;5.17;4.67;;;29.00;60.70;;;;;;4993952;28;20461;-77
2023/07/17 09:45:11;;;;;;;5.97;4.50;;;29.00;61.30;;;;;;4993825;28;20999;-80
2023/07/17 09:47:39;;;;;;;5.60;4.33;;;28.90;59.80;;;;;;4984550;28;20524;-77
2023/07/17 09:50:10;;;;;;;7.30;4.57;;;28.80;59.60;;;;;;4994001;28;20470;-80
2023/07/17 09:52:48;;;;;;;5.57;4.03;;;28.70;59.20;;;;;;4994796;28;20474;-77
2023/07/17 09:55:19;;;;;;;6.20;4.43;;;28.70;59.40;;;;;;4989679;28;20481;-80
2023/07/17 09:57:47;;;;;;;7.83;4.00;;;28.70;59.00;;;;;;4994977;28;20465;-79
2023/07/17 10:00:18;;;;;;;6.23;4.47;;;28.60;59.10;;;;;;4999277;28;21038;-80
2023/07/17 10:02:54;;;;;;;8.40;4.37;;;28.60;59.10;;;;;;4998439;28;20982;-79
2023/07/17 10:05:22;;;;;;;4.87;4.40;;;28.50;59.00;;;;;;4995373;28;20570;-79
2023/07/17 10:07:53;;;;;;;5.40;3.77;;;28.50;59.20;;;;;;4997112;28;20468;-79
2023/07/17 10:10:21;;;;;;;4.97;3.90;;;28.60;59.10;;;;;;4997315;28;20855;-76
2023/07/17 10:12:49;;;;;;;7.23;4.57;;;28.60;59.30;;;;;;4995640;28;20458;-79
2023/07/17 10:15:20;;;;;;;7.53;3.70;;;28.60;59.30;;;;;;4999361;28;20466;-76
2023/07/17 10:17:56;;;;;;;7.73;4.73;;;28.40;59.00;;;;;;4996900;28;20548;-76
2023/07/17 10:20:27;;;;;;;7.10;4.33;;;28.40;58.90;;;;;;5002097;28;20863;-79
2023/07/17 10:22:57;;;;;;;7.00;4.07;;;28.50;59.10;;;;;;4997681;28;20924;-75
2023/07/17 10:25:27;;;;;;;4.67;4.10;;;28.40;58.50;;;;;;4999077;28;20473;-76
2023/07/17 10:27:58;;;;;;;6.00;4.00;;;28.40;58.40;;;;;;4996957;28;20469;-76
2023/07/17 10:30:29;;;;;;;7.10;4.17;;;28.50;58.80;;;;;;4998618;28;20472;-79
2023/07/17 10:33:13;;;;;;;4.00;3.60;;;28.50;58.70;;;;;;4998042;28;20547;-79
2023/07/17 10:35:47;;;;;;;5.93;4.20;;;28.50;58.30;;;;;;4999193;28;20484;-79
2023/07/17 10:38:15;;;;;;;4.63;4.23;;;28.50;58.10;;;;;;4998408;28;20466;-80
2023/07/17 10:40:43;;;;;;;4.37;3.97;;;28.60;58.50;;;;;;5001650;28;20484;-77
2023/07/17 10:43:18;;;;;;;5.20;4.37;;;28.60;59.10;;;;;;5004734;28;20478;-80
2023/07/17 10:45:49;;;;;;;5.23;4.70;;;28.70;58.90;;;;;;5000379;28;20488;-80
2023/07/17 10:48:18;;;;;;;7.27;4.70;;;28.70;58.70;;;;;;5005949;28;20474;-80
2023/07/17 10:50:54;;;;;;;4.57;4.10;;;28.70;58.00;;;;;;5006227;28;20899;-79
2023/07/17 10:53:27;;;;;;;5.80;4.60;;;28.70;58.00;;;;;;5003501;28;20461;-79
2023/07/17 10:56:11;;;;;;;4.20;3.40;;;28.60;58.70;;;;;;5004980;28;20792;-80
2023/07/17 10:58:39;;;;;;;4.23;3.47;;;28.60;58.70;;;;;;4998749;28;20814;-76
2023/07/17 11:01:07;;;;;;;5.50;3.90;;;28.60;57.70;;;;;;4987282;28;20474;-79
2023/07/17 11:03:38;;;;;;;4.03;3.13;;;28.60;56.90;;;;;;4998046;28;20827;-80
2023/07/17 11:06:05;;;;;;;8.53;3.60;;;28.60;56.90;;;;;;4997358;28;20462;-75
2023/07/17 11:08:32;;;;;;;4.67;3.23;;;28.70;57.30;;;;;;4996480;28;20469;-81
2023/07/17 11:11:00;;;;;;;5.20;3.37;;;28.70;57.40;;;;;;4996165;28;21018;-80
2023/07/17 11:13:31;;;;;;;3.63;3.33;;;28.70;57.60;;;;;;4996547;28;20505;-81
2023/07/17 11:16:07;;;;;;;5.40;3.80;;;28.80;58.00;;;;;;4994710;28;20469;-80
2023/07/17 11:18:42;;;;;;;4.30;3.90;;;28.80;57.60;;;;;;4996250;28;20788;-80
2023/07/17 11:21:10;;;;;;;6.03;3.90;;;28.80;57.70;;;;;;4995800;28;20462;-77
2023/07/17 11:23:37;;;;;;;5.83;3.97;;;28.80;57.90;;;;;;4997109;28;20537;-81
2023/07/17 11:26:04;;;;;;;4.90;4.10;;;28.80;57.90;;;;;;4986346;28;20477;-77
2023/07/17 11:28:31;;;;;;;4.60;4.13;;;28.80;57.70;;;;;;4995995;28;20466;-77
2023/07/17 11:30:58;;;;;;;4.30;3.87;;;28.70;57.60;;;;;;4996587;28;20512;-77
2023/07/17 11:33:28;;;;;;;4.93;3.67;;;28.70;57.30;;;;;;4996566;28;20964;-76
2023/07/17 11:35:55;;;;;;;4.60;3.77;;;28.70;57.60;;;;;;4996222;28;20470;-76
2023/07/17 11:38:22;;;;;;;5.17;4.70;;;28.70;58.10;;;;;;4995948;28;20477;-76
2023/07/17 11:41:01;;;;;;;5.07;3.93;;;28.70;57.50;;;;;;4995955;28;20462;-77
2023/07/17 11:43:29;;;;;;;5.83;3.90;;;28.80;57.40;;;;;;4996061;28;20488;-81
2023/07/17 11:46:01;;;;;;;4.87;4.47;;;28.80;56.30;;;;;;4995268;28;20465;-80
2023/07/17 11:48:31;;;;;;;8.33;5.47;;;28.80;56.30;;;;;;4996178;28;20549;-76
2023/07/17 11:51:01;;;;;;;6.23;5.60;;;28.80;56.70;;;;;;4996209;28;20497;-80
2023/07/17 11:53:28;;;;;;;5.97;4.87;;;28.90;56.40;;;;;;4996894;28;20497;-81
2023/07/17 11:56:20;;;;;;;8.90;4.00;;;28.90;56.60;;;;;;4985111;28;20542;-80
2023/07/17 11:58:52;;;;;;;3.87;3.53;;;28.90;55.30;;;;;;4986016;28;20470;-80
2023/07/17 12:01:20;;;;;;;3.30;3.10;;;28.90;55.30;;;;;;4995749;28;20545;-77
2023/07/17 12:03:49;;;;;;;4.83;3.23;;;28.90;54.60;;;;;;4994587;28;20502;-80
2023/07/17 12:06:16;;;;;;;3.80;3.50;;;29.00;54.70;;;;;;4995425;28;20476;-77
2023/07/17 12:08:44;;;;;;;4.63;4.20;;;28.90;53.90;;;;;;4996549;28;20573;-76
2023/07/17 12:11:11;;;;;;;4.03;3.60;;;28.90;53.90;;;;;;4996126;28;20477;-76
2023/07/17 12:13:38;;;;;;;4.00;3.60;;;28.90;53.80;;;;;;4996099;28;20482;-81
2023/07/17 12:16:05;;;;;;;4.57;3.50;;;28.90;54.10;;;;;;4995804;28;20466;-81
2023/07/17 12:18:32;;;;;;;4.03;3.30;;;28.90;53.90;;;;;;4996114;28;20469;-81
2023/07/17 12:21:04;;;;;;;5.20;2.87;;;28.90;53.80;;;;;;4994706;28;20972;-77
2023/07/17 12:23:31;;;;;;;4.93;3.27;;;28.90;53.70;;;;;;4995257;28;20956;-80
2023/07/17 12:25:58;;;;;;;5.43;3.80;;;28.80;52.80;;;;;;4995629;28;20487;-77
2023/07/17 12:28:25;;;;;;;3.57;2.93;;;28.90;53.30;;;;;;4995335;28;20490;-77
2023/07/17 12:30:52;;;;;;;5.00;2.73;;;28.80;53.40;;;;;;4985347;28;20505;-77
2023/07/17 12:33:19;;;;;;;3.80;3.50;;;28.80;52.20;;;;;;4994909;28;20564;-81
2023/07/17 12:35:46;;;;;;;4.70;3.20;;;28.80;52.40;;;;;;4995224;28;20800;-81
2023/07/17 12:38:14;;;;;;;4.27;2.80;;;28.80;52.10;;;;;;4994108;28;20473;-80
2023/07/17 12:40:41;;;;;;;4.73;2.80;;;28.90;52.70;;;;;;4995068;28;20474;-76
2023/07/17 12:43:09;;;;;;;4.90;3.00;;;28.80;51.80;;;;;;4994768;28;20521;-81
2023/07/17 12:45:35;;;;;;;4.53;2.93;;;28.90;52.30;;;;;;4995807;28;20990;-81
2023/07/17 12:48:03;;;;;;;6.67;3.40;;;28.90;53.00;;;;;;4994709;28;20466;-77
2023/07/17 12:50:30;;;;;;;3.87;3.17;;;28.90;52.30;;;;;;4995314;28;20788;-80